createdAt,value
2023-02-15T00:00:00.353Z,7.15
2023-02-15T00:02:27.087Z,6.17
2023-02-15T00:04:54.330Z,5.17
2023-02-15T00:07:21.104Z,4.45
2023-02-15T00:09:48.339Z,4.57
2023-02-15T00:12:16.639Z,6.33
2023-02-15T00:14:43.665Z,7.32
2023-02-15T00:17:10.607Z,6.33
2023-02-15T00:19:37.515Z,5.32
2023-02-15T00:22:04.940Z,4.58
2023-02-15T00:24:32.352Z,4.50
2023-02-15T00:26:59.203Z,6.18
2023-02-15T00:29:25.915Z,7.21
2023-02-15T00:31:52.939Z,6.24
2023-02-15T00:34:23.560Z,5.22
2023-02-15T00:36:50.961Z,4.48
2023-02-15T00:39:18.366Z,4.51
2023-02-15T00:41:46.567Z,6.25
2023-02-15T00:44:15.588Z,7.10
2023-02-15T00:46:42.780Z,6.04
2023-02-15T00:49:10.802Z,5.06
2023-02-15T00:51:40.170Z,4.34
2023-02-15T00:54:07.343Z,4.17
2023-02-15T00:56:34.024Z,5.74
2023-02-15T00:59:00.662Z,6.86
2023-02-15T01:01:27.512Z,5.94
2023-02-15T01:03:54.307Z,4.94
2023-02-15T01:06:21.290Z,4.24
2023-02-15T01:08:48.434Z,4.06
2023-02-15T01:11:22.256Z,5.62
2023-02-15T01:13:56.095Z,6.76
2023-02-15T01:16:25.882Z,5.78
2023-02-15T01:18:52.685Z,4.79
2023-02-15T01:21:21.929Z,4.08
2023-02-15T01:23:48.762Z,4.08
2023-02-15T01:26:16.373Z,5.78
2023-02-15T01:28:43.266Z,6.80
2023-02-15T01:31:17.452Z,5.79
2023-02-15T01:33:44.311Z,4.75
2023-02-15T01:36:10.961Z,4.03
2023-02-15T01:38:37.993Z,3.97
2023-02-15T01:41:23.038Z,5.64
2023-02-15T01:43:56.090Z,6.68
2023-02-15T01:46:28.291Z,5.57
2023-02-15T01:49:18.193Z,4.56
2023-02-15T01:51:46.558Z,3.80
2023-02-15T01:54:24.860Z,4.27
2023-02-15T01:56:51.423Z,6.21
2023-02-15T01:59:22.473Z,6.59
2023-02-15T02:01:51.780Z,5.44
2023-02-15T02:04:29.347Z,4.49
2023-02-15T02:06:58.327Z,3.79
2023-02-15T02:09:25.099Z,4.35
2023-02-15T02:11:52.118Z,6.18
2023-02-15T02:14:19.486Z,6.76
2023-02-15T02:16:54.763Z,5.62
2023-02-15T02:19:51.815Z,4.60
2023-02-15T02:22:45.812Z,3.84
2023-02-15T02:25:25.646Z,5.04
2023-02-15T02:28:13.220Z,6.70
2023-02-15T02:31:06.831Z,5.92
2023-02-15T02:33:39.985Z,4.69
2023-02-15T02:36:27.194Z,3.95
2023-02-15T02:39:04.725Z,4.05
2023-02-15T02:41:51.217Z,5.95
2023-02-15T02:44:25.353Z,6.78
2023-02-15T02:47:13.064Z,5.57
2023-02-15T02:49:43.012Z,4.47
2023-02-15T02:52:43.613Z,3.78
2023-02-15T02:55:36.296Z,3.61
2023-02-15T02:58:15.627Z,5.60
2023-02-15T03:00:47.176Z,6.35
2023-02-15T03:03:39.191Z,5.17
2023-02-15T03:06:21.724Z,4.05
2023-02-15T03:08:52.232Z,3.35
2023-02-15T03:11:19.383Z,3.33
2023-02-15T03:13:48.076Z,5.08
2023-02-15T03:16:28.596Z,6.14
2023-02-15T03:19:12.171Z,5.06
2023-02-15T03:21:57.882Z,3.95
2023-02-15T03:24:29.728Z,3.19
2023-02-15T03:26:56.761Z,3.30
2023-02-15T03:29:26.944Z,5.09
2023-02-15T03:32:06.060Z,6.09
2023-02-15T03:34:36.828Z,4.97
2023-02-15T03:37:25.090Z,3.94
2023-02-15T03:40:25.345Z,3.17
2023-02-15T03:43:01.057Z,3.14
2023-02-15T03:45:31.582Z,5.00
2023-02-15T03:48:00.136Z,5.97
2023-02-15T03:50:51.071Z,4.90
2023-02-15T03:53:22.049Z,3.74
2023-02-15T03:55:50.639Z,3.04
2023-02-15T03:58:35.501Z,3.05
2023-02-15T04:01:35.202Z,4.98
2023-02-15T04:04:08.719Z,5.84
2023-02-15T04:06:35.426Z,4.64
2023-02-15T04:09:20.439Z,3.68
2023-02-15T04:11:47.067Z,2.96
2023-02-15T04:14:31.908Z,3.21
2023-02-15T04:16:58.562Z,5.21
2023-02-15T04:19:43.484Z,6.07
2023-02-15T04:22:28.757Z,4.88
2023-02-15T04:25:13.537Z,3.77
2023-02-15T04:27:45.998Z,3.02
2023-02-15T04:30:14.804Z,3.22
2023-02-15T04:32:41.697Z,5.03
2023-02-15T04:35:09.607Z,6.00
2023-02-15T04:37:36.256Z,4.94
2023-02-15T04:40:05.212Z,3.91
2023-02-15T04:42:31.948Z,3.18
2023-02-15T04:44:58.558Z,3.08
2023-02-15T04:47:25.654Z,4.70
2023-02-15T04:49:52.334Z,5.81
2023-02-15T04:52:19.044Z,4.85
2023-02-15T04:54:45.861Z,3.85
2023-02-15T04:57:13.452Z,3.14
2023-02-15T04:59:40.160Z,3.00
2023-02-15T05:02:07.072Z,4.60
2023-02-15T05:04:33.782Z,5.70
2023-02-15T05:07:00.441Z,4.77
2023-02-15T05:09:27.271Z,3.79
2023-02-15T05:11:53.909Z,3.10
2023-02-15T05:14:20.768Z,2.62
2023-02-15T05:16:47.717Z,3.48
2023-02-15T05:19:14.360Z,5.32
2023-02-15T05:21:40.920Z,5.74
2023-02-15T05:24:26.344Z,4.60
2023-02-15T05:27:11.430Z,3.57
2023-02-15T05:29:38.255Z,2.89
2023-02-15T05:32:05.654Z,3.41
2023-02-15T05:34:32.384Z,5.26
2023-02-15T05:37:01.999Z,6.02
2023-02-15T05:39:28.544Z,4.92
2023-02-15T05:41:55.204Z,3.91
2023-02-15T05:44:21.790Z,3.23
2023-02-15T05:46:48.429Z,3.15
2023-02-15T05:49:15.044Z,4.83
2023-02-15T05:51:41.672Z,5.90
2023-02-15T05:54:08.371Z,4.97
2023-02-15T05:56:35.061Z,3.95
2023-02-15T05:59:01.825Z,3.25
2023-02-15T06:01:28.690Z,3.12
2023-02-15T06:03:56.157Z,4.77
2023-02-15T06:06:22.913Z,5.90
2023-02-15T06:08:49.603Z,4.97
2023-02-15T06:11:16.239Z,3.94
2023-02-15T06:13:42.765Z,3.25
2023-02-15T06:16:09.476Z,3.30
2023-02-15T06:18:36.090Z,5.02
2023-02-15T06:21:02.877Z,6.10
2023-02-15T06:23:29.462Z,5.15
2023-02-15T06:25:56.069Z,4.09
2023-02-15T06:28:22.681Z,3.36
2023-02-15T06:30:49.280Z,3.15
2023-02-15T06:33:15.971Z,4.73
2023-02-15T06:35:42.604Z,5.92
2023-02-15T06:38:09.173Z,5.06
2023-02-15T06:40:35.746Z,4.04
2023-02-15T06:43:02.324Z,3.34
2023-02-15T06:45:28.911Z,3.23
2023-02-15T06:47:55.557Z,4.85
2023-02-15T06:50:22.351Z,5.81
2023-02-15T06:52:48.934Z,4.89
2023-02-15T06:55:15.664Z,3.93
2023-02-15T06:57:42.245Z,3.29
2023-02-15T07:00:09.599Z,3.32
2023-02-15T07:02:36.154Z,5.08
2023-02-15T07:05:04.569Z,6.18
2023-02-15T07:07:31.204Z,5.23
2023-02-15T07:09:57.727Z,4.23
2023-02-15T07:12:42.835Z,3.56
2023-02-15T07:15:15.182Z,3.81
2023-02-15T07:17:42.295Z,5.70
2023-02-15T07:20:15.053Z,6.65
2023-02-15T07:22:41.570Z,5.63
2023-02-15T07:25:10.395Z,4.63
2023-02-15T07:27:37.236Z,3.97
2023-02-15T07:30:06.594Z,4.28
2023-02-15T07:32:33.742Z,6.13
2023-02-15T07:35:00.634Z,7.15
2023-02-15T07:37:27.965Z,6.19
2023-02-15T07:39:54.616Z,5.22
2023-02-15T07:42:22.278Z,4.54
2023-02-15T07:44:48.917Z,4.92
2023-02-15T07:47:15.595Z,6.75
2023-02-15T07:49:42.126Z,7.67
2023-02-15T07:52:08.783Z,6.70
2023-02-15T07:54:35.421Z,5.70
2023-02-15T07:57:02.419Z,5.13
2023-02-15T07:59:33.332Z,6.21
2023-02-15T08:01:59.915Z,7.90
2023-02-15T08:04:26.561Z,7.81
2023-02-15T08:06:54.808Z,6.65
2023-02-15T08:09:22.016Z,5.91
2023-02-15T08:11:48.908Z,6.84
2023-02-15T08:14:18.932Z,8.58
2023-02-15T08:16:49.315Z,8.65
2023-02-15T08:19:28.248Z,7.50
2023-02-15T08:21:57.983Z,6.60
2023-02-15T08:24:28.579Z,6.53
2023-02-15T08:26:55.829Z,8.27
2023-02-15T08:29:25.662Z,9.35
2023-02-15T08:32:08.156Z,8.45
2023-02-15T08:34:38.244Z,7.42
2023-02-15T08:37:06.347Z,6.81
2023-02-15T08:39:33.040Z,6.96
2023-02-15T08:41:59.646Z,8.80
2023-02-15T08:44:26.518Z,9.88
2023-02-15T08:46:53.228Z,9.03
2023-02-15T08:49:22.329Z,8.10
2023-02-15T08:51:49.982Z,7.49
2023-02-15T08:54:21.039Z,7.09
2023-02-15T08:56:48.166Z,7.30
2023-02-15T08:59:20.736Z,9.00
2023-02-15T09:01:48.543Z,8.97
2023-02-15T09:04:16.130Z,8.28
2023-02-15T09:06:46.992Z,7.81
2023-02-15T09:09:15.559Z,7.54
2023-02-15T09:11:44.746Z,7.40
2023-02-15T09:14:15.376Z,7.38
2023-02-15T09:16:48.948Z,8.48
2023-02-15T09:19:17.831Z,9.96
2023-02-15T09:21:44.403Z,9.61
2023-02-15T09:24:14.374Z,9.24
2023-02-15T09:26:44.006Z,9.07
2023-02-15T09:29:12.259Z,9.07
2023-02-15T09:31:45.937Z,9.13
2023-02-15T09:34:16.452Z,9.21
2023-02-15T09:36:43.605Z,9.26
2023-02-15T09:39:15.424Z,9.36
2023-02-15T09:42:19.029Z,9.51
2023-02-15T09:45:07.274Z,9.70
2023-02-15T09:48:02.158Z,9.84
2023-02-15T09:51:00.225Z,9.92
2023-02-15T09:54:01.334Z,9.97
2023-02-15T09:56:39.224Z,10.06
2023-02-15T09:59:05.730Z,10.22
2023-02-15T10:02:28.996Z,10.42
2023-02-15T10:05:02.499Z,10.72
2023-02-15T10:08:12.892Z,10.92
2023-02-15T10:11:26.216Z,11.17
2023-02-15T10:14:18.514Z,11.47
2023-02-15T10:16:52.209Z,11.72
2023-02-15T10:19:43.683Z,11.88
2023-02-15T10:22:35.506Z,12.05
2023-02-15T10:25:32.744Z,12.16
2023-02-15T10:28:09.900Z,12.26
2023-02-15T10:30:52.153Z,12.38
2023-02-15T10:33:40.780Z,12.43
2023-02-15T10:36:17.488Z,12.52
2023-02-15T10:38:58.779Z,12.56
2023-02-15T10:42:10.040Z,12.63
2023-02-15T10:44:59.544Z,12.75
2023-02-15T10:48:12.289Z,12.82
2023-02-15T10:51:04.584Z,12.90
2023-02-15T10:53:52.481Z,12.97
2023-02-15T10:56:39.078Z,13.09
2023-02-15T10:59:28.629Z,13.20
2023-02-15T11:02:18.730Z,13.35
2023-02-15T11:05:25.962Z,13.52
2023-02-15T11:07:57.253Z,13.70
2023-02-15T11:10:34.698Z,13.78
2023-02-15T11:13:10.302Z,13.85
2023-02-15T11:15:45.265Z,13.95
2023-02-15T11:18:39.939Z,14.02
2023-02-15T11:21:27.205Z,14.02
2023-02-15T11:23:53.903Z,14.03
2023-02-15T11:26:35.559Z,14.09
2023-02-15T11:29:14.818Z,14.18
2023-02-15T11:31:56.065Z,14.32
2023-02-15T11:35:00.975Z,14.41
2023-02-15T11:37:49.392Z,14.50
2023-02-15T11:40:29.917Z,14.58
2023-02-15T11:43:01.385Z,14.63
2023-02-15T11:45:34.659Z,14.67
2023-02-15T11:48:02.512Z,14.70
2023-02-15T11:50:32.982Z,14.78
2023-02-15T11:53:07.834Z,14.84
2023-02-15T11:55:35.399Z,14.89
2023-02-15T11:58:26.436Z,14.95
2023-02-15T12:01:17.050Z,15.07
2023-02-15T12:03:50.220Z,15.25
2023-02-15T12:06:53.773Z,15.44
2023-02-15T12:09:35.793Z,15.72
2023-02-15T12:12:30.034Z,15.92
2023-02-15T12:15:05.491Z,16.08
2023-02-15T12:17:36.248Z,16.12
2023-02-15T12:20:22.459Z,16.07
2023-02-15T12:23:02.859Z,16.01
2023-02-15T12:25:35.976Z,15.95
2023-02-15T12:28:04.909Z,15.90
2023-02-15T12:30:35.800Z,15.83
2023-02-15T12:33:16.943Z,15.74
2023-02-15T12:35:44.519Z,15.67
2023-02-15T12:38:11.019Z,15.59
2023-02-15T12:40:38.265Z,15.49
2023-02-15T12:43:09.297Z,15.38
2023-02-15T12:45:37.857Z,15.24
2023-02-15T12:48:17.737Z,15.10
2023-02-15T12:50:54.710Z,14.99
2023-02-15T12:53:34.436Z,14.86
2023-02-15T12:56:06.794Z,14.71
2023-02-15T12:58:36.022Z,14.59
2023-02-15T13:01:28.992Z,14.52
2023-02-15T13:04:04.277Z,14.43
2023-02-15T13:06:37.261Z,14.38
2023-02-15T13:09:17.203Z,14.27
2023-02-15T13:11:45.073Z,14.10
2023-02-15T13:14:32.699Z,13.92
2023-02-15T13:17:02.949Z,13.70
2023-02-15T13:19:41.800Z,13.50
2023-02-15T13:22:27.331Z,13.33
2023-02-15T13:24:58.742Z,13.18
2023-02-15T13:27:37.921Z,13.04
2023-02-15T13:30:35.474Z,12.87
2023-02-15T13:33:10.643Z,12.64
2023-02-15T13:35:54.819Z,12.45
2023-02-15T13:39:08.038Z,12.29
2023-02-15T13:41:44.931Z,12.17
2023-02-15T13:45:03.997Z,12.07
2023-02-15T13:48:14.565Z,11.96
2023-02-15T13:51:17.420Z,11.84
2023-02-15T13:54:22.444Z,11.74
2023-02-15T13:57:16.851Z,11.64
2023-02-15T14:00:05.519Z,11.55
2023-02-15T14:02:44.516Z,11.47
2023-02-15T14:05:54.707Z,11.38
2023-02-15T14:08:39.664Z,11.27
2023-02-15T14:11:32.762Z,11.16
2023-02-15T14:14:24.331Z,11.07
2023-02-15T14:17:11.163Z,10.97
2023-02-15T14:19:50.319Z,10.85
2023-02-15T14:22:38.825Z,10.74
2023-02-15T14:25:26.637Z,10.64
2023-02-15T14:28:02.050Z,10.53
2023-02-15T14:30:37.070Z,10.44
2023-02-15T14:33:15.840Z,10.36
2023-02-15T14:35:43.521Z,10.28
2023-02-15T14:38:10.343Z,10.17
2023-02-15T14:41:01.461Z,10.07
2023-02-15T14:43:46.539Z,9.97
2023-02-15T14:46:45.414Z,9.88
2023-02-15T14:49:16.162Z,9.78
2023-02-15T14:51:49.757Z,9.69
2023-02-15T14:54:19.387Z,9.60
2023-02-15T14:56:47.657Z,9.52
2023-02-15T14:59:18.875Z,9.43
2023-02-15T15:02:14.367Z,9.33
2023-02-15T15:05:11.806Z,9.22
2023-02-15T15:07:53.362Z,9.08
2023-02-15T15:10:20.998Z,8.99
2023-02-15T15:12:55.976Z,8.89
2023-02-15T15:15:31.429Z,8.80
2023-02-15T15:18:06.173Z,8.72
2023-02-15T15:20:41.180Z,8.65
2023-02-15T15:23:16.938Z,8.56
2023-02-15T15:26:31.067Z,8.50
2023-02-15T15:29:00.521Z,8.41
2023-02-15T15:31:40.160Z,8.35
2023-02-15T15:34:38.418Z,8.92
2023-02-15T15:37:26.882Z,11.13
2023-02-15T15:40:05.378Z,10.92
2023-02-15T15:42:41.948Z,10.19
2023-02-15T15:45:33.597Z,9.71
2023-02-15T15:48:33.880Z,9.39
2023-02-15T15:51:11.715Z,9.11
2023-02-15T15:53:50.508Z,8.92
2023-02-15T15:56:35.582Z,8.76
2023-02-15T15:59:08.796Z,8.61
2023-02-15T16:01:42.829Z,8.46
2023-02-15T16:04:23.053Z,8.32
2023-02-15T16:06:49.824Z,8.18
2023-02-15T16:09:18.377Z,8.49
2023-02-15T16:11:52.026Z,10.25
2023-02-15T16:14:29.191Z,11.39
2023-02-15T16:17:02.742Z,10.61
2023-02-15T16:19:40.957Z,9.86
2023-02-15T16:22:24.852Z,9.34
2023-02-15T16:25:12.683Z,8.97
2023-02-15T16:27:44.388Z,8.66
2023-02-15T16:30:44.762Z,8.41
2023-02-15T16:33:15.668Z,8.16
2023-02-15T16:36:03.288Z,8.57
2023-02-15T16:38:42.634Z,10.63
2023-02-15T16:41:18.266Z,11.38
2023-02-15T16:43:48.393Z,10.42
2023-02-15T16:46:30.215Z,9.65
2023-02-15T16:49:01.796Z,9.08
2023-02-15T16:51:33.640Z,8.70
2023-02-15T16:54:17.889Z,8.35
2023-02-15T16:56:46.711Z,8.55
2023-02-15T16:59:57.410Z,10.33
2023-02-15T17:02:53.505Z,11.16
2023-02-15T17:05:21.417Z,10.03
2023-02-15T17:08:05.357Z,9.30
2023-02-15T17:10:42.078Z,8.73
2023-02-15T17:13:17.256Z,8.31
2023-02-15T17:16:02.618Z,7.97
2023-02-15T17:18:46.102Z,8.20
2023-02-15T17:21:21.785Z,10.19
2023-02-15T17:23:51.344Z,10.74
2023-02-15T17:26:36.604Z,9.77
2023-02-15T17:29:12.611Z,8.90
2023-02-15T17:31:39.839Z,8.32
2023-02-15T17:34:06.705Z,7.92
2023-02-15T17:36:33.303Z,7.60
2023-02-15T17:39:20.630Z,8.21
2023-02-15T17:41:47.820Z,10.27
2023-02-15T17:44:18.777Z,10.73
2023-02-15T17:46:45.818Z,9.68
2023-02-15T17:49:25.037Z,8.83
2023-02-15T17:51:51.764Z,8.20
2023-02-15T17:54:36.882Z,7.78
2023-02-15T17:57:10.462Z,8.13
2023-02-15T17:59:55.586Z,10.01
2023-02-15T18:02:40.879Z,10.65
2023-02-15T18:05:39.796Z,9.51
2023-02-15T18:08:46.242Z,8.56
2023-02-15T18:11:32.010Z,7.90
2023-02-15T18:14:01.197Z,7.46
2023-02-15T18:16:38.180Z,7.66
2023-02-15T18:19:05.961Z,9.51
2023-02-15T18:21:33.461Z,10.44
2023-02-15T18:24:01.078Z,9.53
2023-02-15T18:26:28.259Z,8.62
2023-02-15T18:28:55.001Z,7.99
2023-02-15T18:31:25.297Z,7.53
2023-02-15T18:33:58.041Z,7.79
2023-02-15T18:36:37.322Z,9.61
2023-02-15T18:39:29.386Z,10.51
2023-02-15T18:41:56.114Z,9.39
2023-02-15T18:44:23.121Z,8.50
2023-02-15T18:46:49.697Z,7.88
2023-02-15T18:49:16.374Z,7.41
2023-02-15T18:51:43.475Z,7.57
2023-02-15T18:54:26.850Z,9.19
2023-02-15T18:56:57.144Z,10.05
2023-02-15T18:59:26.287Z,9.09
2023-02-15T19:01:53.642Z,8.19
2023-02-15T19:04:20.311Z,7.58
2023-02-15T19:06:48.688Z,7.54
2023-02-15T19:09:18.847Z,9.11
2023-02-15T19:11:54.360Z,10.06
2023-02-15T19:14:28.403Z,9.15
2023-02-15T19:16:56.029Z,8.20
2023-02-15T19:19:23.315Z,7.52
2023-02-15T19:21:53.051Z,7.40
2023-02-15T19:24:36.727Z,8.89
2023-02-15T19:27:03.663Z,9.74
2023-02-15T19:29:30.593Z,8.78
2023-02-15T19:31:57.474Z,7.85
2023-02-15T19:34:24.363Z,7.23
2023-02-15T19:36:54.017Z,6.76
2023-02-15T19:39:39.689Z,7.17
2023-02-15T19:42:12.893Z,9.17
2023-02-15T19:44:43.037Z,9.64
2023-02-15T19:47:13.219Z,8.54
2023-02-15T19:49:40.186Z,7.63
2023-02-15T19:52:25.062Z,7.00
2023-02-15T19:54:53.937Z,7.04
2023-02-15T19:57:21.118Z,8.68
2023-02-15T19:59:47.949Z,9.53
2023-02-15T20:02:17.528Z,8.61
2023-02-15T20:04:44.326Z,7.65
2023-02-15T20:07:26.087Z,7.00
2023-02-15T20:09:52.941Z,6.61
2023-02-15T20:12:24.233Z,7.83
2023-02-15T20:14:52.124Z,9.00
2023-02-15T20:17:18.812Z,8.23
2023-02-15T20:19:45.528Z,7.30
2023-02-15T20:22:26.628Z,6.64
2023-02-15T20:24:56.463Z,6.13
2023-02-15T20:27:23.592Z,6.79
2023-02-15T20:29:50.442Z,8.49
2023-02-15T20:32:17.234Z,8.65
2023-02-15T20:34:44.061Z,7.60
2023-02-15T20:37:28.381Z,6.76
2023-02-15T20:39:54.978Z,6.10
2023-02-15T20:42:21.945Z,6.44
2023-02-15T20:44:51.228Z,8.05
2023-02-15T20:47:18.478Z,8.81
2023-02-15T20:49:45.326Z,7.81
2023-02-15T20:52:19.824Z,6.87
2023-02-15T20:54:46.837Z,6.20
2023-02-15T20:57:14.101Z,6.20
2023-02-15T20:59:41.253Z,7.78
2023-02-15T21:02:20.401Z,8.70
2023-02-15T21:04:47.462Z,7.70
2023-02-15T21:07:20.215Z,6.77
2023-02-15T21:09:47.717Z,6.10
2023-02-15T21:12:18.737Z,6.28
2023-02-15T21:14:45.781Z,7.95
2023-02-15T21:17:14.946Z,8.55
2023-02-15T21:19:41.904Z,7.51
2023-02-15T21:22:13.144Z,6.59
2023-02-15T21:24:54.270Z,5.92
2023-02-15T21:27:21.692Z,5.45
2023-02-15T21:29:48.692Z,6.51
2023-02-15T21:32:15.622Z,7.94
2023-02-15T21:34:42.670Z,7.41
2023-02-15T21:37:27.993Z,6.42
2023-02-15T21:39:54.783Z,5.62
2023-02-15T21:42:39.892Z,5.62
2023-02-15T21:45:35.391Z,7.39
2023-02-15T21:48:02.357Z,8.06
2023-02-15T21:50:47.947Z,6.95
2023-02-15T21:53:27.030Z,5.98
2023-02-15T21:55:57.866Z,5.32
2023-02-15T21:58:28.235Z,5.36
2023-02-15T22:00:57.791Z,7.00
2023-02-15T22:03:36.896Z,8.04
2023-02-15T22:06:05.027Z,7.09
2023-02-15T22:08:32.161Z,6.12
2023-02-15T22:10:58.969Z,5.43
2023-02-15T22:13:31.738Z,5.26
2023-02-15T22:15:58.541Z,6.77
2023-02-15T22:18:34.168Z,7.95
2023-02-15T22:21:01.527Z,7.16
2023-02-15T22:23:28.518Z,6.16
2023-02-15T22:26:04.525Z,5.47
2023-02-15T22:28:35.188Z,6.05
2023-02-15T22:31:03.725Z,7.71
2023-02-15T22:33:33.748Z,8.33
2023-02-15T22:36:00.873Z,7.23
2023-02-15T22:38:28.121Z,6.26
2023-02-15T22:40:58.565Z,5.58
2023-02-15T22:43:34.681Z,5.08
2023-02-15T22:46:15.050Z,5.78
2023-02-15T22:48:43.690Z,7.52
2023-02-15T22:51:15.702Z,7.40
2023-02-15T22:53:42.841Z,6.32
2023-02-15T22:56:39.706Z,5.51
2023-02-15T22:59:20.300Z,4.83
2023-02-15T23:01:47.706Z,4.96
2023-02-15T23:04:18.145Z,6.63
2023-02-15T23:06:45.042Z,7.47
2023-02-15T23:09:12.123Z,6.48
2023-02-15T23:11:38.746Z,5.55
2023-02-15T23:14:05.301Z,4.90
2023-02-15T23:16:33.874Z,4.40
2023-02-15T23:19:00.768Z,4.92
2023-02-15T23:21:33.425Z,6.61
2023-02-15T23:24:20.241Z,7.18
2023-02-15T23:26:47.767Z,6.02
2023-02-15T23:29:19.738Z,5.16
2023-02-15T23:31:50.142Z,4.54
2023-02-15T23:34:24.608Z,4.56
2023-02-15T23:36:51.143Z,6.24
2023-02-15T23:39:43.052Z,7.06
2023-02-15T23:42:16.093Z,5.96
2023-02-15T23:44:44.379Z,5.05
2023-02-15T23:47:53.230Z,4.44
2023-02-15T23:50:21.388Z,4.57
2023-02-15T23:52:49.918Z,6.24
2023-02-15T23:55:17.437Z,6.89
2023-02-15T23:57:44.437Z,5.90
